Terminal Aerodrome Forecast
Issued by NWS

Home | Current Version | Previous Version | Text Only | Print | Product List | Glossary On
Versions: 1 2 3 4 5 6 7 8 9 10 11 12 13 14 15 16 17 18 19 20 21 22 23 24 25 26 27 28 29 30 31
304
FTUS45 KLKN 251120
TAFTPH
TAF
KTPH 251120Z 2512/2612 36006KT P6SM BKN080
     FM251900 32012G22KT P6SM -SHRA VCTS SCT060CB BKN120
     FM260300 35011KT P6SM -SHRA BKN060=

USA.gov is the U.S. government's official web portal to all federal, state and local government web resources and services.